createdAt,value
2022-08-12T00:02:05.036Z,5.60
2022-08-12T00:07:27.978Z,5.47
2022-08-12T00:12:49.977Z,6.15
2022-08-12T00:18:13.075Z,7.32
2022-08-12T00:23:34.658Z,8.77
2022-08-12T00:28:56.208Z,6.47
2022-08-12T00:34:17.941Z,5.60
2022-08-12T00:39:39.783Z,5.80
2022-08-12T00:44:45.135Z,5.35
2022-08-12T00:49:51.625Z,6.55
2022-08-12T00:55:00.425Z,6.40
2022-08-12T01:00:11.315Z,6.65
2022-08-12T01:05:35.650Z,5.18
2022-08-12T01:10:59.780Z,6.25
2022-08-12T01:16:07.864Z,7.75
2022-08-12T01:21:22.144Z,4.80
2022-08-12T01:26:26.208Z,5.75
2022-08-12T01:31:30.213Z,6.07
2022-08-12T01:36:56.461Z,7.85
2022-08-12T01:42:11.570Z,29.25
2022-08-12T01:47:32.946Z,8.03
2022-08-12T01:52:53.495Z,15.00
2022-08-12T01:58:18.365Z,6.05
2022-08-12T02:04:00.654Z,6.22
2022-08-12T02:09:23.816Z,6.93
2022-08-12T02:15:06.525Z,6.40
2022-08-12T02:20:34.279Z,6.32
2022-08-12T02:25:57.448Z,9.70
2022-08-12T02:31:05.688Z,8.65
2022-08-12T02:36:08.932Z,6.88
2022-08-12T02:41:13.557Z,7.27
2022-08-12T02:46:39.218Z,9.55
2022-08-12T02:51:45.448Z,26.08
2022-08-12T02:56:50.962Z,8.05
2022-08-12T03:02:04.816Z,8.10
2022-08-12T03:07:10.439Z,7.10
2022-08-12T03:12:19.997Z,12.63
2022-08-12T03:17:37.017Z,9.38
2022-08-12T03:22:40.962Z,7.22
2022-08-12T03:27:50.004Z,9.20
2022-08-12T03:32:54.267Z,9.03
2022-08-12T03:38:02.790Z,7.72
2022-08-12T03:43:27.805Z,7.25
2022-08-12T03:48:49.240Z,9.90
2022-08-12T03:54:11.609Z,12.15
2022-08-12T03:59:33.369Z,8.77
2022-08-12T04:04:36.299Z,9.73
2022-08-12T04:09:40.957Z,7.43
2022-08-12T04:14:43.789Z,9.80
2022-08-12T04:19:48.760Z,13.93
2022-08-12T04:24:54.213Z,9.70
2022-08-12T04:30:21.225Z,10.98
2022-08-12T04:35:21.867Z,9.23
2022-08-12T04:40:28.256Z,10.65
2022-08-12T04:45:33.631Z,9.98
2022-08-12T04:50:37.307Z,11.70
2022-08-12T04:55:42.533Z,10.82
2022-08-12T05:00:45.298Z,9.73
2022-08-12T05:05:49.117Z,12.73
2022-08-12T05:10:52.026Z,11.05
2022-08-12T05:16:05.673Z,12.83
2022-08-12T05:21:12.078Z,14.45
2022-08-12T05:26:15.359Z,12.93
2022-08-12T05:31:46.155Z,12.68
2022-08-12T05:36:45.026Z,11.52
2022-08-12T05:41:47.892Z,12.80
2022-08-12T05:46:50.645Z,11.23
2022-08-12T05:51:53.488Z,10.52
2022-08-12T05:56:56.358Z,10.95
2022-08-12T06:02:10.591Z,10.60
2022-08-12T06:08:02.179Z,9.77
2022-08-12T06:12:39.237Z,11.48
2022-08-12T06:17:42.323Z,13.57
2022-08-12T06:22:48.134Z,12.48
2022-08-12T06:28:06.294Z,11.00
2022-08-12T06:33:22.370Z,9.70
2022-08-12T06:38:27.788Z,11.40
2022-08-12T06:43:30.800Z,15.65
2022-08-12T06:48:59.461Z,12.30
2022-08-12T06:54:03.050Z,13.20
2022-08-12T06:59:06.175Z,13.30
2022-08-12T07:04:33.688Z,13.50
2022-08-12T07:10:01.370Z,12.70
2022-08-12T07:14:55.199Z,12.77
2022-08-12T07:20:03.480Z,9.65
2022-08-12T07:25:26.260Z,11.23
2022-08-12T07:30:30.953Z,12.65
2022-08-12T07:35:34.844Z,11.68
2022-08-12T07:40:37.724Z,12.95
2022-08-12T07:45:40.938Z,9.45
2022-08-12T07:50:44.012Z,12.07
2022-08-12T07:55:47.118Z,6.93
2022-08-12T08:00:50.299Z,11.95
2022-08-12T08:05:53.495Z,9.85
2022-08-12T08:11:17.907Z,9.73
2022-08-12T08:16:20.923Z,8.57
2022-08-12T08:21:27.591Z,9.48
2022-08-12T08:26:30.511Z,9.98
2022-08-12T08:31:37.539Z,8.75
2022-08-12T08:36:41.581Z,6.78
2022-08-12T08:42:16.938Z,6.70
2022-08-12T08:47:23.618Z,6.95
2022-08-12T08:52:39.289Z,8.57
2022-08-12T08:57:49.688Z,5.35
2022-08-12T09:02:59.206Z,5.32
2022-08-12T09:08:11.986Z,6.33
2022-08-12T09:14:10.505Z,5.03
2022-08-12T09:18:52.432Z,9.30
2022-08-12T09:24:07.563Z,7.70
2022-08-12T09:29:11.768Z,8.65
2022-08-12T09:34:26.427Z,7.87
2022-08-12T09:40:01.469Z,8.45
2022-08-12T09:45:18.867Z,7.53
2022-08-12T09:50:26.049Z,8.15
2022-08-12T09:56:06.574Z,8.95
2022-08-12T10:00:53.084Z,7.50
2022-08-12T10:06:27.410Z,9.57
2022-08-12T10:12:05.606Z,9.25
2022-08-12T10:17:01.554Z,8.77
2022-08-12T10:22:17.262Z,7.70
2022-08-12T10:28:04.941Z,7.23
2022-08-12T10:33:19.086Z,6.78
2022-08-12T10:38:34.602Z,6.40
2022-08-12T10:43:55.712Z,7.43
2022-08-12T10:49:06.701Z,9.10
2022-08-12T10:54:27.643Z,6.97
2022-08-12T11:00:29.713Z,8.88
2022-08-12T11:07:02.536Z,7.80
2022-08-12T11:10:26.597Z,8.88
2022-08-12T11:16:04.147Z,7.80
2022-08-12T11:20:57.823Z,7.17
2022-08-12T11:26:05.622Z,6.75
2022-08-12T11:31:14.132Z,6.88
2022-08-12T11:36:17.572Z,7.72
2022-08-12T11:41:31.042Z,6.63
2022-08-12T11:46:42.366Z,7.47
2022-08-12T11:51:45.231Z,8.23
2022-08-12T11:57:02.970Z,6.05
2022-08-12T12:02:25.439Z,5.65
2022-08-12T12:08:36.187Z,6.50
2022-08-12T12:12:51.801Z,7.30
2022-08-12T12:17:55.085Z,5.63
2022-08-12T12:22:58.865Z,5.57
2022-08-12T12:28:05.365Z,9.75
2022-08-12T12:33:10.932Z,7.35
2022-08-12T12:38:25.217Z,10.47
2022-08-12T12:43:42.922Z,9.55
2022-08-12T12:48:47.715Z,9.75
2022-08-12T12:54:06.647Z,9.77
2022-08-12T12:59:55.257Z,9.90
2022-08-12T13:04:37.209Z,10.07
2022-08-12T13:09:40.619Z,8.70
2022-08-12T13:14:49.471Z,8.77
2022-08-12T13:19:54.889Z,7.18
2022-08-12T13:25:00.034Z,8.95
2022-08-12T13:30:12.741Z,8.90
2022-08-12T13:35:19.970Z,7.65
2022-08-12T13:40:40.184Z,6.68
2022-08-12T13:45:43.893Z,7.13
2022-08-12T13:50:47.704Z,7.25
2022-08-12T13:55:59.657Z,6.27
2022-08-12T14:01:06.452Z,8.60
2022-08-12T14:06:15.459Z,6.93
2022-08-12T14:11:25.105Z,6.90
2022-08-12T14:16:47.032Z,6.88
2022-08-12T14:21:59.229Z,5.10
2022-08-12T14:27:09.240Z,5.28
2022-08-12T14:32:16.628Z,5.80
2022-08-12T14:37:57.363Z,6.38
2022-08-12T14:42:43.138Z,5.70
2022-08-12T14:47:58.324Z,5.07
2022-08-12T14:58:25.428Z,7.47
2022-08-12T15:03:46.634Z,5.78
2022-08-12T15:08:53.067Z,6.43
2022-08-12T15:13:56.127Z,7.50
2022-08-12T15:18:59.193Z,6.28
2022-08-12T15:24:03.844Z,7.53
2022-08-12T15:29:10.451Z,7.47
2022-08-12T15:34:14.386Z,7.10
2022-08-12T15:39:18.231Z,8.27
2022-08-12T15:44:38.191Z,9.07
2022-08-12T15:50:00.694Z,7.75
2022-08-12T15:55:05.982Z,7.53
2022-08-12T16:00:31.564Z,8.13
2022-08-12T16:06:16.849Z,6.83
2022-08-12T16:11:16.089Z,8.48
2022-08-12T16:16:24.533Z,7.65
2022-08-12T16:21:51.991Z,8.73
2022-08-12T16:26:54.305Z,7.38
2022-08-12T16:31:59.025Z,9.13
2022-08-12T16:37:04.773Z,9.73
2022-08-12T16:42:10.232Z,8.85
2022-08-12T16:47:14.577Z,7.70
2022-08-12T16:52:18.693Z,8.38
2022-08-12T16:57:42.988Z,9.03
2022-08-12T17:02:50.691Z,10.90
2022-08-12T17:08:01.362Z,8.88
2022-08-12T17:13:10.258Z,9.50
2022-08-12T17:18:39.409Z,8.80
2022-08-12T17:23:52.813Z,9.57
2022-08-12T17:29:00.300Z,10.18
2022-08-12T17:34:07.275Z,9.63
2022-08-12T17:39:21.509Z,10.65
2022-08-12T17:44:26.514Z,8.55
2022-08-12T17:50:02.945Z,8.63
2022-08-12T17:54:59.742Z,8.18
2022-08-12T18:00:05.521Z,7.40
2022-08-12T18:05:10.017Z,7.78
2022-08-12T18:10:35.972Z,8.77
2022-08-12T18:16:06.101Z,7.83
2022-08-12T18:21:05.117Z,7.88
2022-08-12T18:26:26.721Z,13.38
2022-08-12T18:31:43.780Z,13.13
2022-08-12T18:36:54.060Z,10.48
2022-08-12T18:41:59.751Z,10.33
2022-08-12T18:47:05.782Z,15.40
2022-08-12T18:52:12.310Z,11.40
2022-08-12T18:57:19.770Z,14.32
2022-08-12T19:02:40.929Z,16.95
2022-08-12T19:08:00.664Z,13.57
2022-08-12T19:13:25.246Z,13.07
2022-08-12T19:18:39.873Z,11.30
2022-08-12T19:23:43.571Z,14.30
2022-08-12T19:28:47.990Z,15.07
2022-08-12T19:34:21.556Z,16.03
2022-08-12T19:39:15.390Z,16.55
2022-08-12T19:44:27.377Z,14.80
2022-08-12T19:49:30.429Z,17.27
2022-08-12T19:54:34.728Z,14.85
2022-08-12T19:59:43.157Z,12.23
2022-08-12T20:06:04.820Z,16.25
2022-08-12T20:10:35.590Z,19.67
2022-08-12T20:15:44.455Z,23.33
2022-08-12T20:20:48.202Z,22.45
2022-08-12T20:25:53.482Z,22.63
2022-08-12T20:31:01.829Z,25.20
2022-08-12T20:36:13.734Z,25.30
2022-08-12T20:41:32.565Z,20.60
2022-08-12T20:46:35.659Z,18.30
2022-08-12T20:51:50.990Z,18.17
2022-08-12T20:56:58.297Z,17.25
2022-08-12T21:02:04.649Z,15.32
2022-08-12T21:07:10.432Z,17.00
2022-08-12T21:12:27.957Z,13.95
2022-08-12T21:18:08.858Z,17.40
2022-08-12T21:22:57.398Z,15.95
2022-08-12T21:28:01.374Z,14.82
2022-08-12T21:33:05.077Z,15.45
2022-08-12T21:38:17.391Z,16.30
2022-08-12T21:43:21.850Z,14.73
2022-08-12T21:48:25.707Z,14.90
2022-08-12T21:53:31.765Z,14.15
2022-08-12T21:58:51.759Z,12.80
2022-08-12T22:04:13.060Z,14.48
2022-08-12T22:09:17.643Z,13.07
2022-08-12T22:14:23.712Z,15.98
2022-08-12T22:19:27.229Z,13.68
2022-08-12T22:24:30.905Z,15.10
2022-08-12T22:29:52.194Z,15.43
2022-08-12T22:35:24.227Z,12.30
2022-08-12T22:40:32.378Z,13.88
2022-08-12T22:45:56.561Z,14.32
2022-08-12T22:51:01.929Z,14.88
2022-08-12T22:56:09.571Z,17.00
2022-08-12T23:01:21.148Z,14.07
2022-08-12T23:06:25.837Z,13.43
2022-08-12T23:11:40.506Z,17.40
2022-08-12T23:16:45.493Z,14.85
2022-08-12T23:22:06.331Z,13.60
2022-08-12T23:27:50.119Z,15.40
2022-08-12T23:33:00.085Z,15.43
2022-08-12T23:38:03.348Z,14.75
2022-08-12T23:43:06.157Z,16.55
2022-08-12T23:48:09.117Z,15.55
2022-08-12T23:53:32.812Z,16.87
2022-08-12T23:58:35.723Z,16.85
